LTBA/IST METAR and TAF weather

Enter ICAO airport designator
Station Type Date Time Source
LTBA METAR 2021/07/29 02:50 UTC NOAA

LTBA 290250Z 04008KT CAVOK 25/21 Q1014 NOSIG


Station Type Date Time Source
LTBA Decoded METAR 2021/07/29 02:50 UTC NOAA

Istanbul / Ataturk, Turkey (LTBA) 40-58N 028-49E 37M
Jul 28, 2021 - 10:50 PM EDT / 2021.07.29 0250 UTC
Wind: from the NE (040 degrees) at 9 MPH (8 KT):0
Visibility: greater than 7 mile(s):0
Temperature: 77 F (25 C)
Dew Point: 69 F (21 C)
Relative Humidity: 78%
Pressure (altimeter): 29.94 in. Hg (1014 hPa)
ob: LTBA 290250Z 04008KT CAVOK 25/21 Q1014 NOSIG
cycle: 3

Station Type Date Time Source
LTBA TAF 2021/07/28 18:03 UTC NOAA

TAF LTBA 281640Z 2818/2924 VRB02KT CAVOK
BECMG 2906/2910 04013KT
TEMPO 2912/2915 05015G25KT
BECMG 2915/2918 VRB02KT

Example: see airport list